Terminal Aerodrome Forecast
Issued by NWS

Home | Current Version | Previous Version | Text Only | Print | Product List | Glossary On
Versions: 1 2 3 4 5 6 7 8 9 10 11 12 13
582
FTUS42 KJAX 142104 AAA
TAFCRG
TAF AMD
KCRG 142104Z 1421/1518 26010KT P6SM BKN250
     FM150000 VRB03KT P6SM BKN250
     FM151600 25007KT P6SM BKN100=

USA.gov is the U.S. government's official web portal to all federal, state and local government web resources and services.